Corky — WDC3366 — position and weather

sailwx.info

Track history (hours):
 
Tides and Currents Weather Stations Pressure Air Temp Water Temp Dewpoint Dewpoint Depression Visibility Wind Speed Wind Dir Waves Ship Positions

Corky

Owner: Gulf South Marine Transportation, Inc., New Orleans, LA. More information available from US FCC via Universal Licensing System and Coast Guard Vessel Documentation Center.

Last reported at 2016-Jan-20 05:32 UTC. Time now 2016-Feb-08 10:05 UTC.
Position N 29°34' W 090°29'.
Warning: this ship's position is 19 days out of date.

Length 18 m; draft 3.3 m.

Type: Tow > 200 m length. MMSI: 367006780.

Date/timePositionNaut miles runAvg speedWind from/ knotsBaromVisibWave heightAir tempDewpointWater temp
2016-Jan-20 05:32N 29°34' W 090°29'4 4.3
2016-Jan-20 04:33N 29°34' W 090°34'4 4.1
2016-Jan-20 03:33N 29°35' W 090°39'3 3.3
2016-Jan-20 02:33N 29°37' W 090°42'0 0.3
2016-Jan-20 01:33N 29°37' W 090°42'0 0.2
2016-Jan-20 00:33N 29°37' W 090°42'0 0.0
2016-Jan-19 23:33N 29°37' W 090°43'0 0.0
2016-Jan-19 22:33N 29°37' W 090°42'0 0.1
2016-Jan-19 21:33N 29°37' W 090°42'3 3.0
2016-Jan-19 20:33N 29°34' W 090°43'2 2.1
2016-Jan-19 19:33N 29°33' W 090°45'10 0.2
2016-Jan-17 17:27N 29°34' W 090°56'4 4.0
2016-Jan-17 16:27N 29°32' W 090°52'3 3.4
2016-Jan-17 15:33N 29°32' W 090°49'1 0.5
2016-Jan-17 14:33N 29°32' W 090°48'0 0.0
2016-Jan-17 13:33N 29°32' W 090°48'0 0.1
2016-Jan-17 12:28N 29°32' W 090°48'1 1.3
2016-Jan-17 11:33N 29°32' W 090°47'1 0.7
2016-Jan-17 10:33N 29°32' W 090°46'3 3.0
2016-Jan-17 09:33N 29°34' W 090°43'3 2.8
2016-Jan-17 08:33N 29°37' W 090°41'0 0.1
2016-Jan-17 07:33N 29°37' W 090°41'0 0.0
2016-Jan-17 06:33N 29°37' W 090°41'2 2.3
2016-Jan-17 05:33N 29°36' W 090°39'3 3.2
2016-Jan-17 04:33N 29°35' W 090°35'  
Track history (hours):
 
Tides and Currents Weather Stations Pressure Air Temp Water Temp Dewpoint Dewpoint Depression Visibility Wind Speed Wind Dir Waves Ship Positions

Corky

Owner: Gulf South Marine Transportation, Inc., New Orleans, LA. More information available from US FCC via Universal Licensing System and Coast Guard Vessel Documentation Center.

Last reported at 2016-Jan-20 05:32 UTC. Time now 2016-Feb-08 10:05 UTC.
Position N 29°34' W 090°29'.
Warning: this ship's position is 19 days out of date.

Length 18 m; draft 3.3 m.

Type: Tow > 200 m length. MMSI: 367006780.

Date/timePositionNaut miles runAvg speedWind from/ knotsBaromVisibWave heightAir tempDewpointWater temp
2016-Jan-20 05:32N 29°34' W 090°29'4 4.3
2016-Jan-20 04:33N 29°34' W 090°34'4 4.1
2016-Jan-20 03:33N 29°35' W 090°39'3 3.3
2016-Jan-20 02:33N 29°37' W 090°42'0 0.3
2016-Jan-20 01:33N 29°37' W 090°42'0 0.2
2016-Jan-20 00:33N 29°37' W 090°42'0 0.0
2016-Jan-19 23:33N 29°37' W 090°43'0 0.0
2016-Jan-19 22:33N 29°37' W 090°42'0 0.1
2016-Jan-19 21:33N 29°37' W 090°42'3 3.0
2016-Jan-19 20:33N 29°34' W 090°43'2 2.1
2016-Jan-19 19:33N 29°33' W 090°45'10 0.2
2016-Jan-17 17:27N 29°34' W 090°56'4 4.0
2016-Jan-17 16:27N 29°32' W 090°52'3 3.4
2016-Jan-17 15:33N 29°32' W 090°49'1 0.5
2016-Jan-17 14:33N 29°32' W 090°48'0 0.0
2016-Jan-17 13:33N 29°32' W 090°48'0 0.1
2016-Jan-17 12:28N 29°32' W 090°48'1 1.3
2016-Jan-17 11:33N 29°32' W 090°47'1 0.7
2016-Jan-17 10:33N 29°32' W 090°46'3 3.0
2016-Jan-17 09:33N 29°34' W 090°43'3 2.8
2016-Jan-17 08:33N 29°37' W 090°41'0 0.1
2016-Jan-17 07:33N 29°37' W 090°41'0 0.0
2016-Jan-17 06:33N 29°37' W 090°41'2 2.3
2016-Jan-17 05:33N 29°36' W 090°39'3 3.2
2016-Jan-17 04:33N 29°35' W 090°35'  

Dump ship's entire track history